CheckWX is a tool to help pilots better visualize weather data.  It is not intended as a substitute for an official pre-flight weather briefing.

14:19:41 UTC

1R7 METAR
Brookhaven-Lincoln County Airport
Brookhaven, Mississippi, USA
Current

25 mins ago

K1R7 151355Z AUTO 00000KT 10SM CLR 26/22 A3012 RMK AO2
Observed
Sep-15 @ 13:55 UTC
Visibility
10 SM
Flight Rules
VFR
Cloud Levels
  • Clear skies
Temperature
26°C / 79°F
Dewpoint
22°C / 72°F
Humidity
79%
Altimeter
30.12" Hg
Pressure
1020.02 hPa
Previous

45 mins ago

K1R7 151335Z AUTO 00000KT 10SM FEW048 25/22 A3012 RMK AO2
Observed
Sep-15 @ 13:35 UTC
Visibility
10 SM
Flight Rules
VFR
Cloud Levels
  • Few at 4,800' AGL
Temperature
25°C / 77°F
Dewpoint
22°C / 72°F
Humidity
83%
Altimeter
30.12" Hg
Pressure
1020.02 hPa
Previous

1 hour ago

K1R7 151315Z AUTO 00000KT 9SM FEW047 FEW055 24/23 A3012 RMK AO2
Observed
Sep-15 @ 13:15 UTC
Visibility
9 SM
Flight Rules
VFR
Cloud Levels
  • Few at 4,700' AGL
  • Few at 5,500' AGL
Temperature
24°C / 75°F
Dewpoint
23°C / 73°F
Humidity
94%
Altimeter
30.12" Hg
Pressure
1020.02 hPa